createdAt,value
2023-05-09T00:01:24.601Z,100.00
2023-05-09T00:03:52.155Z,100.00
2023-05-09T00:10:37.922Z,97.73
2023-05-09T00:13:04.409Z,99.88
2023-05-09T00:15:31.978Z,100.00
2023-05-09T00:17:58.707Z,99.91
2023-05-09T00:20:25.260Z,98.13
2023-05-09T00:22:52.273Z,97.68
2023-05-09T00:25:18.748Z,98.69
2023-05-09T00:27:45.234Z,98.64
2023-05-09T00:30:11.862Z,100.00
2023-05-09T00:32:40.166Z,100.00
2023-05-09T00:35:07.997Z,100.00
2023-05-09T00:37:34.517Z,100.00
2023-05-09T00:40:00.946Z,100.00
2023-05-09T00:42:27.511Z,100.00
2023-05-09T00:44:54.011Z,100.00
2023-05-09T00:47:23.043Z,100.00
2023-05-09T00:49:50.337Z,100.00
2023-05-09T00:52:17.561Z,100.00
2023-05-09T00:54:44.027Z,100.00
2023-05-09T00:57:10.540Z,100.00
2023-05-09T00:59:37.376Z,100.00
2023-05-09T01:02:03.832Z,100.00
2023-05-09T01:04:30.411Z,100.00
2023-05-09T01:07:16.818Z,100.00
2023-05-09T01:09:52.355Z,100.00
2023-05-09T01:12:45.020Z,100.00
2023-05-09T01:15:17.538Z,100.00
2023-05-09T01:17:53.655Z,100.00
2023-05-09T01:20:33.428Z,100.00
2023-05-09T01:23:38.859Z,100.00
2023-05-09T01:26:10.601Z,100.00
2023-05-09T01:28:40.049Z,100.00
2023-05-09T01:31:08.990Z,100.00
2023-05-09T01:33:39.581Z,100.00
2023-05-09T01:36:12.085Z,100.00
2023-05-09T01:38:42.165Z,100.00
2023-05-09T01:41:12.043Z,100.00
2023-05-09T01:43:39.358Z,100.00
2023-05-09T01:46:07.392Z,100.00
2023-05-09T01:48:36.749Z,100.00
2023-05-09T01:51:05.509Z,100.00
2023-05-09T01:53:34.352Z,100.00
2023-05-09T01:56:04.001Z,100.00
2023-05-09T01:58:33.567Z,100.00
2023-05-09T02:01:01.333Z,100.00
2023-05-09T02:03:28.606Z,100.00
2023-05-09T02:05:56.441Z,100.00
2023-05-09T02:08:23.404Z,100.00
2023-05-09T02:10:50.487Z,100.00
2023-05-09T02:13:17.079Z,100.00
2023-05-09T02:15:44.305Z,100.00
2023-05-09T02:18:11.008Z,100.00
2023-05-09T02:20:37.480Z,100.00
2023-05-09T02:23:04.548Z,100.00
2023-05-09T02:25:32.174Z,100.00
2023-05-09T02:28:00.031Z,100.00
2023-05-09T02:30:27.593Z,100.00
2023-05-09T02:32:59.809Z,100.00
2023-05-09T02:35:27.809Z,100.00
2023-05-09T02:37:55.176Z,100.00
2023-05-09T02:40:22.619Z,100.00
2023-05-09T02:42:49.182Z,100.00
2023-05-09T02:45:15.952Z,100.00
2023-05-09T02:47:42.846Z,100.00
2023-05-09T02:50:09.590Z,100.00
2023-05-09T02:52:37.929Z,100.00
2023-05-09T02:55:05.079Z,100.00
2023-05-09T02:57:35.147Z,100.00
2023-05-09T03:00:01.652Z,100.00
2023-05-09T03:02:29.211Z,100.00
2023-05-09T03:04:56.505Z,100.00
2023-05-09T03:07:22.936Z,100.00
2023-05-09T03:09:49.407Z,100.00
2023-05-09T03:12:16.095Z,100.00
2023-05-09T03:14:42.539Z,100.00
2023-05-09T03:17:09.523Z,100.00
2023-05-09T03:19:36.700Z,100.00
2023-05-09T03:22:03.286Z,100.00
2023-05-09T03:24:33.640Z,100.00
2023-05-09T03:27:00.303Z,100.00
2023-05-09T03:29:27.599Z,100.00
2023-05-09T03:31:54.095Z,100.00
2023-05-09T03:34:20.635Z,100.00
2023-05-09T03:36:47.128Z,100.00
2023-05-09T03:39:14.635Z,100.00
2023-05-09T03:41:44.361Z,100.00
2023-05-09T03:44:12.724Z,100.00
2023-05-09T03:46:39.238Z,100.00
2023-05-09T03:49:05.893Z,100.00
2023-05-09T03:51:32.635Z,100.00
2023-05-09T03:54:01.290Z,100.00
2023-05-09T03:56:28.552Z,100.00
2023-05-09T03:58:55.064Z,100.00
2023-05-09T04:01:22.066Z,100.00
2023-05-09T04:03:48.803Z,100.00
2023-05-09T04:06:15.922Z,100.00
2023-05-09T04:08:44.358Z,100.00
2023-05-09T04:11:10.998Z,100.00
2023-05-09T04:13:40.356Z,100.00
2023-05-09T04:16:19.917Z,100.00
2023-05-09T04:18:46.671Z,100.00
2023-05-09T04:21:13.715Z,100.00
2023-05-09T04:23:43.543Z,100.00
2023-05-09T04:26:12.439Z,100.00
2023-05-09T04:28:39.337Z,100.00
2023-05-09T04:31:07.036Z,100.00
2023-05-09T04:33:36.418Z,100.00
2023-05-09T04:36:04.412Z,100.00
2023-05-09T04:38:31.429Z,100.00
2023-05-09T04:40:58.985Z,100.00
2023-05-09T04:43:27.930Z,100.00
2023-05-09T04:45:54.464Z,100.00
2023-05-09T04:48:21.015Z,100.00
2023-05-09T04:50:49.584Z,100.00
2023-05-09T04:53:16.033Z,100.00
2023-05-09T04:55:43.853Z,100.00
2023-05-09T04:58:11.344Z,100.00
2023-05-09T05:00:38.212Z,100.00
2023-05-09T05:03:07.069Z,100.00
2023-05-09T05:05:36.745Z,100.00
2023-05-09T05:08:04.172Z,100.00
2023-05-09T05:10:35.484Z,100.00
2023-05-09T05:13:06.878Z,100.00
2023-05-09T05:15:35.072Z,100.00
2023-05-09T05:18:02.284Z,100.00
2023-05-09T05:20:33.157Z,100.00
2023-05-09T05:23:00.453Z,100.00
2023-05-09T05:25:27.231Z,100.00
2023-05-09T05:27:55.289Z,100.00
2023-05-09T05:30:21.985Z,100.00
2023-05-09T05:32:49.189Z,100.00
2023-05-09T05:35:19.398Z,100.00
2023-05-09T05:37:47.637Z,100.00
2023-05-09T05:40:15.826Z,100.00
2023-05-09T05:42:46.563Z,100.00
2023-05-09T05:45:13.267Z,100.00
2023-05-09T05:47:43.688Z,100.00
2023-05-09T05:50:12.096Z,100.00
2023-05-09T05:52:39.726Z,100.00
2023-05-09T05:55:08.069Z,100.00
2023-05-09T05:57:35.201Z,100.00
2023-05-09T06:00:01.808Z,100.00
2023-05-09T06:02:28.401Z,100.00
2023-05-09T06:04:56.066Z,100.00
2023-05-09T06:07:23.584Z,100.00
2023-05-09T06:09:52.053Z,100.00
2023-05-09T06:12:18.497Z,100.00
2023-05-09T06:14:45.106Z,100.00
2023-05-09T06:17:12.823Z,98.40
2023-05-09T06:19:39.332Z,97.63
2023-05-09T06:22:05.796Z,95.94
2023-05-09T06:24:36.219Z,98.52
2023-05-09T06:27:04.307Z,100.00
2023-05-09T06:29:30.983Z,96.87
2023-05-09T06:31:57.623Z,94.20
2023-05-09T06:34:24.131Z,97.33
2023-05-09T06:36:50.776Z,99.03
2023-05-09T06:39:18.392Z,97.16
2023-05-09T06:41:45.019Z,95.92
2023-05-09T06:44:11.456Z,97.37
2023-05-09T06:46:38.034Z,99.63
2023-05-09T06:49:06.002Z,99.77
2023-05-09T06:51:32.629Z,96.75
2023-05-09T06:53:59.115Z,97.22
2023-05-09T06:56:26.878Z,97.06
2023-05-09T06:58:53.833Z,98.27
2023-05-09T07:01:20.398Z,92.87
2023-05-09T07:03:47.507Z,91.22
2023-05-09T07:06:14.080Z,94.28
2023-05-09T07:08:40.528Z,97.63
2023-05-09T07:11:07.239Z,99.14
2023-05-09T07:13:33.718Z,96.00
2023-05-09T07:16:00.310Z,99.45
2023-05-09T07:18:26.841Z,98.33
2023-05-09T07:20:53.394Z,97.97
2023-05-09T07:23:19.900Z,98.48
2023-05-09T07:25:46.525Z,95.60
2023-05-09T07:28:13.177Z,96.13
2023-05-09T07:30:39.639Z,96.66
2023-05-09T07:33:06.970Z,95.48
2023-05-09T07:35:33.455Z,97.81
2023-05-09T07:38:00.025Z,93.81
2023-05-09T07:40:26.650Z,95.05
2023-05-09T07:42:55.170Z,93.79
2023-05-09T07:45:23.775Z,94.79
2023-05-09T07:47:50.678Z,94.22
2023-05-09T07:50:17.427Z,100.00
2023-05-09T07:52:43.902Z,97.42
2023-05-09T07:55:12.224Z,95.74
2023-05-09T07:57:40.059Z,95.19
2023-05-09T08:00:08.898Z,93.37
2023-05-09T08:02:39.960Z,86.76
2023-05-09T08:05:08.032Z,91.50
2023-05-09T08:07:34.833Z,94.58
2023-05-09T08:10:01.412Z,84.65
2023-05-09T08:12:27.858Z,83.01
2023-05-09T08:14:54.548Z,87.56
2023-05-09T08:17:21.101Z,87.64
2023-05-09T08:19:47.575Z,89.96
2023-05-09T08:22:18.733Z,86.22
2023-05-09T08:24:46.384Z,86.98
2023-05-09T08:27:13.975Z,87.52
2023-05-09T08:29:41.191Z,82.65
2023-05-09T08:32:08.105Z,79.67
2023-05-09T08:34:34.960Z,83.89
2023-05-09T08:37:02.329Z,87.08
2023-05-09T08:39:28.826Z,87.35
2023-05-09T08:41:58.797Z,89.89
2023-05-09T08:44:26.272Z,89.79
2023-05-09T08:46:56.889Z,92.72
2023-05-09T08:49:24.135Z,93.99
2023-05-09T08:51:51.054Z,96.79
2023-05-09T08:54:20.608Z,91.85
2023-05-09T08:56:48.011Z,93.57
2023-05-09T08:59:16.537Z,94.72
2023-05-09T09:01:43.791Z,94.39
2023-05-09T09:04:11.944Z,93.93
2023-05-09T09:06:39.948Z,92.21
2023-05-09T09:09:08.788Z,93.31
2023-05-09T09:11:36.804Z,91.45
2023-05-09T09:14:13.162Z,93.13
2023-05-09T09:16:41.653Z,93.71
2023-05-09T09:19:13.051Z,92.26
2023-05-09T09:21:42.691Z,86.14
2023-05-09T09:24:13.083Z,89.58
2023-05-09T09:26:46.503Z,91.28
2023-05-09T09:29:13.442Z,91.25
2023-05-09T09:31:44.638Z,88.04
2023-05-09T09:34:14.654Z,86.29
2023-05-09T09:36:41.241Z,89.89
2023-05-09T09:39:09.115Z,85.18
2023-05-09T09:41:38.001Z,80.03
2023-05-09T09:44:15.732Z,82.55
2023-05-09T09:46:53.008Z,85.01
2023-05-09T09:49:24.477Z,84.27
2023-05-09T09:51:53.146Z,84.25
2023-05-09T09:54:19.907Z,79.32
2023-05-09T09:56:54.995Z,80.82
2023-05-09T09:59:26.520Z,78.92
2023-05-09T10:02:07.567Z,80.68
2023-05-09T10:04:39.251Z,82.62
2023-05-09T10:07:08.383Z,87.04
2023-05-09T10:09:35.762Z,82.01
2023-05-09T10:12:06.699Z,82.87
2023-05-09T10:14:35.427Z,81.33
2023-05-09T10:17:04.791Z,82.88
2023-05-09T10:19:32.938Z,79.99
2023-05-09T10:22:04.915Z,83.70
2023-05-09T10:24:51.111Z,78.76
2023-05-09T10:27:23.013Z,80.60
2023-05-09T10:29:57.302Z,78.68
2023-05-09T10:32:29.087Z,82.56
2023-05-09T10:35:06.933Z,79.02
2023-05-09T10:37:33.933Z,72.32
2023-05-09T10:40:04.878Z,72.77
2023-05-09T10:42:31.903Z,74.26
2023-05-09T10:44:58.409Z,72.79
2023-05-09T10:47:29.698Z,72.58
2023-05-09T10:49:57.507Z,71.54
2023-05-09T10:52:24.055Z,73.60
2023-05-09T10:55:05.093Z,74.11
2023-05-09T10:57:32.667Z,71.59
2023-05-09T11:00:00.473Z,68.37
2023-05-09T11:02:30.963Z,66.18
2023-05-09T11:05:17.660Z,70.01
2023-05-09T11:07:44.665Z,69.92
2023-05-09T11:10:16.704Z,71.54
2023-05-09T11:12:59.623Z,69.69
2023-05-09T11:15:27.853Z,72.29
2023-05-09T11:18:08.327Z,66.07
2023-05-09T11:20:36.042Z,68.49
2023-05-09T11:23:06.774Z,67.17
2023-05-09T11:25:33.377Z,68.17
2023-05-09T11:28:03.016Z,69.69
2023-05-09T11:30:40.726Z,68.42
2023-05-09T11:33:24.724Z,65.01
2023-05-09T11:36:31.735Z,63.91
2023-05-09T11:39:06.156Z,65.96
2023-05-09T11:41:39.804Z,65.39
2023-05-09T11:44:21.296Z,68.06
2023-05-09T11:46:49.121Z,65.12
2023-05-09T11:49:15.868Z,63.10
2023-05-09T11:51:42.661Z,60.40
2023-05-09T11:54:11.358Z,62.73
2023-05-09T11:56:42.008Z,61.73
2023-05-09T11:59:08.688Z,68.26
2023-05-09T12:01:35.922Z,67.72
2023-05-09T12:04:02.897Z,68.24
2023-05-09T12:06:30.000Z,68.15
2023-05-09T12:08:59.337Z,67.16
2023-05-09T12:11:25.896Z,67.72
2023-05-09T12:13:52.922Z,66.16
2023-05-09T12:16:21.220Z,65.39
2023-05-09T12:18:49.952Z,65.25
2023-05-09T12:21:22.868Z,65.61
2023-05-09T12:23:51.768Z,64.83
2023-05-09T12:26:22.037Z,66.43
2023-05-09T12:28:48.927Z,67.64
2023-05-09T12:31:17.021Z,67.09
2023-05-09T12:33:43.519Z,67.81
2023-05-09T12:36:11.468Z,66.32
2023-05-09T12:38:38.752Z,64.45
2023-05-09T12:41:22.335Z,61.75
2023-05-09T12:43:57.081Z,62.47
2023-05-09T12:46:24.143Z,63.83
2023-05-09T12:48:51.681Z,63.92
2023-05-09T12:51:20.398Z,65.25
2023-05-09T12:53:47.128Z,62.94
2023-05-09T12:56:18.425Z,62.34
2023-05-09T12:58:55.067Z,65.45
2023-05-09T13:01:27.387Z,66.00
2023-05-09T13:04:02.739Z,66.97
2023-05-09T13:06:29.347Z,67.17
2023-05-09T13:09:01.101Z,64.42
2023-05-09T13:11:28.682Z,61.41
2023-05-09T13:13:55.675Z,60.93
2023-05-09T13:16:22.621Z,65.16
2023-05-09T13:18:49.249Z,66.97
2023-05-09T13:21:15.914Z,67.53
2023-05-09T13:23:42.408Z,66.46
2023-05-09T13:26:10.385Z,67.47
2023-05-09T13:28:36.958Z,66.75
2023-05-09T13:31:04.052Z,64.19
2023-05-09T13:33:30.782Z,63.46
2023-05-09T13:35:57.331Z,63.64
2023-05-09T13:38:24.186Z,66.62
2023-05-09T13:40:50.677Z,66.00
2023-05-09T13:43:17.151Z,65.45
2023-05-09T13:45:43.616Z,63.44
2023-05-09T13:48:11.677Z,60.79
2023-05-09T13:50:38.222Z,63.99
2023-05-09T13:53:04.866Z,64.05
2023-05-09T13:55:31.664Z,64.69
2023-05-09T13:57:58.266Z,64.14
2023-05-09T14:00:26.517Z,62.65
2023-05-09T14:02:53.110Z,64.27
2023-05-09T14:05:19.784Z,61.44
2023-05-09T14:07:46.422Z,62.15
2023-05-09T14:10:12.998Z,59.83
2023-05-09T14:12:40.717Z,59.80
2023-05-09T14:15:08.271Z,62.67
2023-05-09T14:17:34.891Z,62.77
2023-05-09T14:20:02.019Z,62.06
2023-05-09T14:22:28.552Z,64.82
2023-05-09T14:24:58.272Z,61.13
2023-05-09T14:27:25.119Z,62.04
2023-05-09T14:29:51.951Z,59.86
2023-05-09T14:32:18.458Z,59.54
2023-05-09T14:34:45.642Z,58.88
2023-05-09T14:37:14.815Z,59.17
2023-05-09T14:39:42.503Z,60.88
2023-05-09T14:42:11.374Z,60.29
2023-05-09T14:44:38.659Z,59.95
2023-05-09T14:47:05.339Z,57.64
2023-05-09T14:49:32.441Z,58.20
2023-05-09T14:51:59.199Z,61.73
2023-05-09T14:54:26.104Z,58.81
2023-05-09T14:56:52.690Z,59.39
2023-05-09T14:59:19.251Z,58.48
2023-05-09T15:01:46.201Z,58.06
2023-05-09T15:04:12.868Z,56.94
2023-05-09T15:06:39.602Z,57.53
2023-05-09T15:09:06.416Z,56.81
2023-05-09T15:11:43.716Z,57.50
2023-05-09T15:14:14.856Z,57.82
2023-05-09T15:16:41.514Z,57.37
2023-05-09T15:19:08.287Z,55.58
2023-05-09T15:21:35.049Z,57.68
2023-05-09T15:24:02.420Z,56.74
2023-05-09T15:26:29.388Z,56.08
2023-05-09T15:28:55.908Z,56.02
2023-05-09T15:31:24.032Z,54.69
2023-05-09T15:33:50.693Z,54.73
2023-05-09T15:36:17.211Z,56.12
2023-05-09T15:38:46.205Z,57.33
2023-05-09T15:41:12.848Z,54.34
2023-05-09T15:43:39.408Z,55.56
2023-05-09T15:46:06.010Z,55.93
2023-05-09T15:48:32.636Z,56.06
2023-05-09T15:50:59.111Z,55.64
2023-05-09T15:53:27.515Z,55.75
2023-05-09T15:55:54.101Z,56.27
2023-05-09T15:58:20.678Z,56.20
2023-05-09T16:00:47.636Z,56.68
2023-05-09T16:03:14.158Z,57.62
2023-05-09T16:05:41.078Z,57.11
2023-05-09T16:08:07.683Z,56.97
2023-05-09T16:10:34.233Z,58.10
2023-05-09T16:13:00.915Z,58.35
2023-05-09T16:15:27.578Z,58.84
2023-05-09T16:17:54.185Z,58.75
2023-05-09T16:20:20.802Z,59.19
2023-05-09T16:22:47.432Z,59.90
2023-05-09T16:25:14.066Z,58.68
2023-05-09T16:27:40.702Z,60.09
2023-05-09T16:30:07.871Z,58.58
2023-05-09T16:32:34.428Z,59.27
2023-05-09T16:35:00.945Z,58.59
2023-05-09T16:37:29.737Z,58.48
2023-05-09T16:39:56.471Z,59.24
2023-05-09T16:42:23.110Z,58.82
2023-05-09T16:44:49.595Z,59.24
2023-05-09T16:47:16.130Z,58.74
2023-05-09T16:49:42.680Z,59.09
2023-05-09T16:52:09.471Z,59.31
2023-05-09T16:54:35.974Z,59.44
2023-05-09T16:57:03.281Z,58.97
2023-05-09T16:59:29.780Z,60.23
2023-05-09T17:01:57.616Z,60.28
2023-05-09T17:04:25.283Z,59.52
2023-05-09T17:06:53.301Z,60.30
2023-05-09T17:09:19.833Z,61.47
2023-05-09T17:11:46.444Z,61.55
2023-05-09T17:14:12.990Z,61.52
2023-05-09T17:16:39.564Z,61.52
2023-05-09T17:19:06.244Z,61.04
2023-05-09T17:21:32.897Z,61.14
2023-05-09T17:23:59.365Z,61.04
2023-05-09T17:26:25.989Z,63.01
2023-05-09T17:28:52.539Z,61.74
2023-05-09T17:31:19.167Z,61.82
2023-05-09T17:33:45.795Z,63.19
2023-05-09T17:36:12.294Z,63.97
2023-05-09T17:38:38.815Z,63.80
2023-05-09T17:41:05.784Z,65.75
2023-05-09T17:43:32.430Z,66.96
2023-05-09T17:45:59.164Z,67.11
2023-05-09T17:48:26.247Z,66.57
2023-05-09T17:50:52.736Z,66.01
2023-05-09T17:53:19.285Z,66.08
2023-05-09T17:55:45.805Z,66.97
2023-05-09T17:58:12.408Z,68.58
2023-05-09T18:00:38.921Z,70.07
2023-05-09T18:03:07.367Z,68.63
2023-05-09T18:05:34.052Z,69.33
2023-05-09T18:08:01.301Z,69.26
2023-05-09T18:10:28.761Z,70.34
2023-05-09T18:12:55.426Z,68.90
2023-05-09T18:15:22.008Z,69.91
2023-05-09T18:17:49.293Z,70.34
2023-05-09T18:20:16.745Z,70.93
2023-05-09T18:22:43.396Z,71.03
2023-05-09T18:25:10.365Z,71.44
2023-05-09T18:27:36.896Z,71.29
2023-05-09T18:30:03.769Z,71.13
2023-05-09T18:32:30.290Z,71.10
2023-05-09T18:34:56.856Z,69.77
2023-05-09T18:37:24.684Z,70.30
2023-05-09T18:39:51.446Z,69.63
2023-05-09T18:42:18.193Z,70.18
2023-05-09T18:44:44.830Z,70.02
2023-05-09T18:47:11.951Z,69.63
2023-05-09T18:49:38.890Z,69.21
2023-05-09T18:52:05.429Z,69.70
2023-05-09T18:54:31.960Z,69.73
2023-05-09T18:56:58.495Z,68.49
2023-05-09T18:59:25.025Z,66.40
2023-05-09T19:01:51.849Z,65.62
2023-05-09T19:04:19.669Z,67.92
2023-05-09T19:06:46.973Z,64.67
2023-05-09T19:09:13.678Z,65.22
2023-05-09T19:11:40.216Z,65.74
2023-05-09T19:14:07.114Z,66.85
2023-05-09T19:16:33.713Z,68.30
2023-05-09T19:19:00.999Z,68.98
2023-05-09T19:21:28.348Z,68.34
2023-05-09T19:23:54.957Z,70.16
2023-05-09T19:26:22.059Z,69.72
2023-05-09T19:28:48.668Z,70.68
2023-05-09T19:31:15.633Z,70.47
2023-05-09T19:33:45.505Z,69.67
2023-05-09T19:36:12.797Z,71.27
2023-05-09T19:38:39.491Z,71.31
2023-05-09T19:41:05.997Z,70.90
2023-05-09T19:43:32.562Z,71.95
2023-05-09T19:45:59.939Z,71.20
2023-05-09T19:48:26.653Z,70.89
2023-05-09T19:50:57.547Z,71.81
2023-05-09T19:53:24.673Z,71.83
2023-05-09T19:55:51.704Z,72.59
2023-05-09T19:58:18.403Z,72.79
2023-05-09T20:00:45.301Z,73.64
2023-05-09T20:03:12.046Z,72.96
2023-05-09T20:05:38.602Z,73.55
2023-05-09T20:08:05.184Z,74.45
2023-05-09T20:10:32.968Z,75.21
2023-05-09T20:13:00.885Z,76.67
2023-05-09T20:15:27.899Z,77.53
2023-05-09T20:17:54.737Z,77.07
2023-05-09T20:20:21.475Z,77.79
2023-05-09T20:22:48.124Z,77.22
2023-05-09T20:25:15.301Z,77.69
2023-05-09T20:27:42.066Z,80.33
2023-05-09T20:30:09.022Z,80.85
2023-05-09T20:32:35.527Z,82.33
2023-05-09T20:35:02.333Z,84.28
2023-05-09T20:37:28.829Z,85.00
2023-05-09T20:39:55.623Z,85.57
2023-05-09T20:42:23.230Z,85.89
2023-05-09T20:44:51.480Z,84.75
2023-05-09T20:47:18.072Z,84.44
2023-05-09T20:49:44.528Z,85.07
2023-05-09T20:52:11.557Z,84.58
2023-05-09T20:54:38.560Z,83.77
2023-05-09T20:57:05.164Z,83.45
2023-05-09T20:59:31.670Z,84.12
2023-05-09T21:01:58.213Z,85.17
2023-05-09T21:04:24.971Z,84.87
2023-05-09T21:06:51.556Z,89.44
2023-05-09T21:09:18.495Z,94.38
2023-05-09T21:11:45.739Z,100.00
2023-05-09T21:14:12.225Z,100.00
2023-05-09T21:16:38.774Z,100.00
2023-05-09T21:19:06.592Z,100.00
2023-05-09T21:21:33.178Z,100.00
2023-05-09T21:24:04.299Z,100.00
2023-05-09T21:26:30.862Z,100.00
2023-05-09T21:28:57.376Z,100.00
2023-05-09T21:31:24.020Z,100.00
2023-05-09T21:33:50.789Z,100.00
2023-05-09T21:36:17.328Z,100.00
2023-05-09T21:38:43.801Z,100.00
2023-05-09T21:41:10.484Z,100.00
2023-05-09T21:43:37.713Z,100.00
2023-05-09T21:46:05.509Z,100.00
2023-05-09T21:48:32.227Z,100.00
2023-05-09T21:51:02.975Z,100.00
2023-05-09T21:53:29.595Z,100.00
2023-05-09T21:55:56.091Z,100.00
2023-05-09T21:58:22.552Z,100.00
2023-05-09T22:00:49.099Z,100.00
2023-05-09T22:03:15.824Z,100.00
2023-05-09T22:05:42.586Z,100.00
2023-05-09T22:08:09.247Z,100.00
2023-05-09T22:10:37.425Z,100.00
2023-05-09T22:13:03.984Z,100.00
2023-05-09T22:15:30.603Z,100.00
2023-05-09T22:17:57.194Z,100.00
2023-05-09T22:20:23.964Z,100.00
2023-05-09T22:22:50.529Z,100.00
2023-05-09T22:25:17.138Z,100.00
2023-05-09T22:27:43.672Z,100.00
2023-05-09T22:30:12.349Z,100.00
2023-05-09T22:32:39.619Z,100.00
2023-05-09T22:35:06.876Z,100.00
2023-05-09T22:37:33.454Z,100.00
2023-05-09T22:40:01.457Z,100.00
2023-05-09T22:42:29.363Z,100.00
2023-05-09T22:44:56.155Z,100.00
2023-05-09T22:47:22.781Z,100.00
2023-05-09T22:49:50.362Z,100.00
2023-05-09T22:52:17.125Z,100.00
2023-05-09T22:54:43.790Z,100.00
2023-05-09T22:57:10.732Z,100.00
2023-05-09T22:59:37.349Z,100.00
2023-05-09T23:02:04.804Z,100.00
2023-05-09T23:04:32.563Z,100.00
2023-05-09T23:06:59.098Z,100.00
2023-05-09T23:09:25.818Z,100.00
2023-05-09T23:11:52.323Z,100.00
2023-05-09T23:14:18.892Z,100.00
2023-05-09T23:16:45.402Z,100.00
2023-05-09T23:19:11.942Z,100.00
2023-05-09T23:21:38.541Z,100.00
2023-05-09T23:24:05.246Z,100.00
2023-05-09T23:26:32.287Z,100.00
2023-05-09T23:28:58.761Z,100.00
2023-05-09T23:31:25.438Z,100.00
2023-05-09T23:33:52.328Z,100.00
2023-05-09T23:36:18.917Z,100.00
2023-05-09T23:38:45.417Z,100.00
2023-05-09T23:41:12.824Z,100.00
2023-05-09T23:43:39.477Z,100.00
2023-05-09T23:46:06.044Z,100.00
2023-05-09T23:48:32.632Z,100.00
2023-05-09T23:50:59.095Z,100.00
2023-05-09T23:53:26.122Z,100.00
2023-05-09T23:55:52.621Z,100.00
2023-05-09T23:58:19.076Z,100.00
